Time;durP1;ratioP1;P1;durP2;ratioP2;P2;SDS_P1;SDS_P2;PMS_P1;PMS_P2;Temp;Humidity;BMP_temperature;BMP_pressure;BME280_temperature;BME280_humidity;BME280_pressure;Samples;Min_cycle;Max_cycle;Signal;HPM_P1;HPM_P2
2022/07/07 00:02:04;;;;;;;7.18;4.97;;;;;;;;;;5042872;28;20209;-72
2022/07/07 00:04:29;;;;;;;8.90;4.68;;;;;;;;;;5044434;28;20188;-72
2022/07/07 00:06:55;;;;;;;6.30;4.53;;;;;;;;;;5041781;28;20184;-72
2022/07/07 00:09:20;;;;;;;5.35;4.32;;;;;;;;;;5046226;28;20182;-73
2022/07/07 00:11:45;;;;;;;6.18;5.20;;;;;;;;;;5041712;28;20212;-73
2022/07/07 00:14:11;;;;;;;7.47;4.40;;;;;;;;;;5049404;28;20195;-73
2022/07/07 00:16:37;;;;;;;6.78;3.88;;;;;;;;;;5025256;28;20182;-73
2022/07/07 00:19:02;;;;;;;9.35;4.22;;;;;;;;;;5050626;28;20736;-73
2022/07/07 00:21:28;;;;;;;9.27;4.50;;;;;;;;;;5054382;28;20202;-74
2022/07/07 00:23:53;;;;;;;6.00;4.72;;;;;;;;;;5050325;28;20593;-73
2022/07/07 00:26:18;;;;;;;6.38;4.40;;;;;;;;;;5051945;28;20551;-73
2022/07/07 00:28:43;;;;;;;6.40;4.00;;;;;;;;;;5053378;28;20193;-73
2022/07/07 00:31:08;;;;;;;6.17;4.20;;;;;;;;;;5050824;28;20461;-73
2022/07/07 00:33:34;;;;;;;5.35;3.78;;;;;;;;;;5049506;28;20430;-73
2022/07/07 00:35:59;;;;;;;5.03;3.23;;;;;;;;;;5053313;28;20192;-74
2022/07/07 00:38:24;;;;;;;5.63;3.20;;;;;;;;;;5053098;28;20450;-73
2022/07/07 00:40:50;;;;;;;6.20;3.50;;;;;;;;;;5029753;28;20443;-73
2022/07/07 00:43:15;;;;;;;6.18;2.70;;;;;;;;;;5053387;28;20268;-73
2022/07/07 00:45:40;;;;;;;4.50;2.20;;;;;;;;;;5053403;28;20598;-73
2022/07/07 00:48:06;;;;;;;6.10;2.40;;;;;;;;;;5033538;28;20249;-73
2022/07/07 00:50:31;;;;;;;4.68;2.30;;;;;;;;;;5053021;28;20216;-73
2022/07/07 00:52:56;;;;;;;4.82;2.22;;;;;;;;;;5053662;28;20527;-73
2022/07/07 00:55:22;;;;;;;5.20;2.30;;;;;;;;;;5046386;28;20189;-71
2022/07/07 00:57:47;;;;;;;5.68;2.67;;;;;;;;;;5050172;28;20208;-71
2022/07/07 01:00:14;;;;;;;2.88;2.03;;;;;;;;;;5052429;28;20193;-71
2022/07/07 01:02:41;;;;;;;6.00;1.85;;;;;;;;;;5052196;28;20296;-71
2022/07/07 01:05:08;;;;;;;4.95;2.08;;;;;;;;;;5052536;28;20182;-72
2022/07/07 01:07:33;;;;;;;4.60;1.90;;;;;;;;;;5049216;28;20219;-72
2022/07/07 01:09:59;;;;;;;4.88;2.08;;;;;;;;;;5051126;28;20561;-74
2022/07/07 01:12:25;;;;;;;2.42;1.80;;;;;;;;;;5052465;28;20213;-74
2022/07/07 01:14:50;;;;;;;3.88;1.67;;;;;;;;;;5044533;28;20189;-73
2022/07/07 01:17:15;;;;;;;8.50;2.10;;;;;;;;;;5046035;28;20201;-72
2022/07/07 01:19:41;;;;;;;5.38;2.28;;;;;;;;;;5048404;28;20419;-72
2022/07/07 01:22:12;;;;;;;2.88;2.30;;;;;;;;;;5045667;28;20205;-74
2022/07/07 01:24:37;;;;;;;4.82;1.95;;;;;;;;;;5045078;28;20205;-72
2022/07/07 01:27:05;;;;;;;3.10;1.83;;;;;;;;;;5049637;28;20260;-73
2022/07/07 01:29:37;;;;;;;4.85;2.08;;;;;;;;;;5048287;28;20224;-74
2022/07/07 01:32:04;;;;;;;2.10;1.73;;;;;;;;;;5041794;28;20660;-72
2022/07/07 01:34:29;;;;;;;2.40;2.00;;;;;;;;;;5051718;28;20190;-73
2022/07/07 01:36:54;;;;;;;3.88;2.30;;;;;;;;;;5048919;28;20173;-73
2022/07/07 01:39:20;;;;;;;2.10;1.83;;;;;;;;;;5051305;28;20205;-73
2022/07/07 01:41:45;;;;;;;4.00;2.08;;;;;;;;;;5052435;28;20950;-73
2022/07/07 01:44:10;;;;;;;4.80;2.00;;;;;;;;;;5049820;28;20178;-73
2022/07/07 01:46:35;;;;;;;3.33;1.77;;;;;;;;;;5032268;28;20623;-73
2022/07/07 01:49:00;;;;;;;3.20;1.80;;;;;;;;;;5045367;28;20190;-73
2022/07/07 01:51:26;;;;;;;3.83;1.50;;;;;;;;;;5047059;28;20201;-73
2022/07/07 01:53:51;;;;;;;6.47;2.60;;;;;;;;;;5049410;28;20181;-73
2022/07/07 01:56:16;;;;;;;2.20;1.30;;;;;;;;;;5045180;28;20427;-73
2022/07/07 01:58:41;;;;;;;2.90;1.58;;;;;;;;;;5043907;28;20821;-73
2022/07/07 02:01:06;;;;;;;2.38;1.60;;;;;;;;;;5047025;28;20206;-73
2022/07/07 02:03:32;;;;;;;2.97;1.53;;;;;;;;;;5051287;28;20242;-74
2022/07/07 02:05:57;;;;;;;2.72;1.85;;;;;;;;;;5039861;28;20955;-75
2022/07/07 02:08:22;;;;;;;3.75;1.80;;;;;;;;;;5046992;28;20267;-74
2022/07/07 02:13:31;;;;;;;4.47;1.70;;;;;;;;;;5048706;28;20628;-74
2022/07/07 02:15:56;;;;;;;4.97;1.98;;;;;;;;;;5047917;28;20193;-74
2022/07/07 02:18:21;;;;;;;3.42;2.30;;;;;;;;;;5047883;28;20217;-74
2022/07/07 02:20:47;;;;;;;5.20;2.17;;;;;;;;;;5047075;28;20285;-74
2022/07/07 02:23:12;;;;;;;3.97;2.28;;;;;;;;;;5052004;28;20173;-74
2022/07/07 02:25:37;;;;;;;3.33;2.00;;;;;;;;;;5046647;28;20180;-74
2022/07/07 02:28:03;;;;;;;2.10;1.80;;;;;;;;;;5050914;28;20196;-74
2022/07/07 02:30:28;;;;;;;3.33;2.40;;;;;;;;;;5047380;28;20231;-73
2022/07/07 02:32:53;;;;;;;6.18;3.05;;;;;;;;;;5049746;28;20452;-73
2022/07/07 02:35:18;;;;;;;4.60;2.70;;;;;;;;;;5052047;28;20176;-72
2022/07/07 02:37:43;;;;;;;6.80;3.00;;;;;;;;;;5032399;28;20529;-73
2022/07/07 02:40:09;;;;;;;3.93;2.70;;;;;;;;;;5049906;28;20478;-73
2022/07/07 02:42:34;;;;;;;4.95;2.55;;;;;;;;;;5051010;28;20419;-72
2022/07/07 02:45:00;;;;;;;3.72;3.20;;;;;;;;;;5050813;28;20182;-73
2022/07/07 02:47:25;;;;;;;3.93;3.23;;;;;;;;;;5033668;28;20239;-72
2022/07/07 02:49:50;;;;;;;4.72;3.30;;;;;;;;;;5049391;28;20469;-72
2022/07/07 02:52:16;;;;;;;3.55;3.05;;;;;;;;;;5050443;28;20190;-72
2022/07/07 02:54:41;;;;;;;6.18;3.60;;;;;;;;;;5049637;28;20215;-72
2022/07/07 02:57:06;;;;;;;3.95;3.17;;;;;;;;;;5050390;28;20182;-72
2022/07/07 02:59:31;;;;;;;5.40;3.50;;;;;;;;;;5048728;28;20185;-72
2022/07/07 03:01:57;;;;;;;5.82;3.63;;;;;;;;;;5050857;28;20201;-72
2022/07/07 03:04:22;;;;;;;6.45;3.42;;;;;;;;;;5047925;28;20181;-72
2022/07/07 03:06:48;;;;;;;4.22;3.35;;;;;;;;;;5041922;28;20645;-72
2022/07/07 03:09:13;;;;;;;6.07;3.93;;;;;;;;;;5048855;28;20196;-73
2022/07/07 03:11:38;;;;;;;6.93;3.65;;;;;;;;;;5045270;28;20804;-72
2022/07/07 03:14:03;;;;;;;4.80;3.17;;;;;;;;;;5048821;28;20204;-72
2022/07/07 03:16:28;;;;;;;8.73;3.38;;;;;;;;;;5050286;28;20518;-73
2022/07/07 03:18:53;;;;;;;7.50;2.97;;;;;;;;;;5047758;28;20232;-72
2022/07/07 03:21:19;;;;;;;12.17;2.93;;;;;;;;;;5043235;28;20493;-72
2022/07/07 03:23:44;;;;;;;10.00;3.70;;;;;;;;;;5043076;28;20462;-73
2022/07/07 03:26:09;;;;;;;4.75;2.28;;;;;;;;;;5045195;28;20434;-70
2022/07/07 03:28:34;;;;;;;7.75;2.42;;;;;;;;;;5049997;28;20186;-71
2022/07/07 03:31:00;;;;;;;7.35;1.67;;;;;;;;;;5048323;28;20205;-71
2022/07/07 03:33:25;;;;;;;3.78;1.77;;;;;;;;;;5046825;28;20609;-71
2022/07/07 03:35:50;;;;;;;6.43;1.60;;;;;;;;;;5047045;28;20189;-70
2022/07/07 03:38:15;;;;;;;5.70;1.58;;;;;;;;;;5049710;28;20197;-74
2022/07/07 03:40:40;;;;;;;3.60;1.50;;;;;;;;;;5046327;28;20181;-71
2022/07/07 03:43:06;;;;;;;6.45;1.65;;;;;;;;;;5049042;28;20670;-71
2022/07/07 03:45:31;;;;;;;7.13;1.92;;;;;;;;;;5049196;28;20178;-71
2022/07/07 03:47:56;;;;;;;5.75;1.77;;;;;;;;;;5046139;28;20675;-71
2022/07/07 03:50:21;;;;;;;6.82;1.85;;;;;;;;;;5049754;28;20193;-71
2022/07/07 03:52:46;;;;;;;10.07;2.65;;;;;;;;;;5050561;28;20198;-71
2022/07/07 03:55:12;;;;;;;5.47;1.70;;;;;;;;;;5036639;28;20182;-71
2022/07/07 03:57:38;;;;;;;6.25;1.63;;;;;;;;;;5051276;28;20225;-72
2022/07/07 04:00:03;;;;;;;2.83;1.25;;;;;;;;;;5043407;28;20257;-71
2022/07/07 04:02:29;;;;;;;6.53;1.80;;;;;;;;;;5048671;28;20681;-71
2022/07/07 04:04:54;;;;;;;10.35;2.08;;;;;;;;;;5046771;28;20177;-72
2022/07/07 04:07:20;;;;;;;4.53;1.60;;;;;;;;;;5054216;28;20178;-71
2022/07/07 04:09:45;;;;;;;5.13;1.90;;;;;;;;;;5036031;28;20185;-72
2022/07/07 04:12:10;;;;;;;4.13;1.45;;;;;;;;;;5052814;28;20667;-72
2022/07/07 04:14:36;;;;;;;9.30;1.67;;;;;;;;;;5046073;28;20232;-72
2022/07/07 04:17:01;;;;;;;4.80;1.37;;;;;;;;;;5034042;28;20239;-72
2022/07/07 04:19:26;;;;;;;6.18;1.67;;;;;;;;;;5048284;28;20954;-72
2022/07/07 04:21:51;;;;;;;5.55;1.50;;;;;;;;;;5053509;28;20197;-72
2022/07/07 04:24:16;;;;;;;8.90;1.65;;;;;;;;;;5049968;28;20169;-71
2022/07/07 04:26:41;;;;;;;7.60;1.67;;;;;;;;;;5050148;28;20170;-71
2022/07/07 04:29:07;;;;;;;6.18;2.17;;;;;;;;;;5051439;28;20591;-72
2022/07/07 04:31:32;;;;;;;5.25;1.70;;;;;;;;;;5052686;28;20241;-72
2022/07/07 04:33:57;;;;;;;7.03;2.13;;;;;;;;;;5051763;28;20301;-71
2022/07/07 04:36:22;;;;;;;9.65;3.05;;;;;;;;;;5052771;28;20791;-72
2022/07/07 04:38:48;;;;;;;10.57;2.47;;;;;;;;;;5052315;28;20244;-71
2022/07/07 04:41:13;;;;;;;8.50;2.05;;;;;;;;;;5051862;28;20208;-71
2022/07/07 04:43:38;;;;;;;7.22;2.33;;;;;;;;;;5053682;28;20672;-72
2022/07/07 04:46:03;;;;;;;11.60;2.78;;;;;;;;;;5053417;28;20212;-72
2022/07/07 04:48:28;;;;;;;6.55;1.75;;;;;;;;;;5052198;28;20249;-72
2022/07/07 04:50:54;;;;;;;7.10;1.73;;;;;;;;;;5050639;28;20182;-72
2022/07/07 04:53:19;;;;;;;8.55;1.45;;;;;;;;;;5051986;28;20216;-72
2022/07/07 04:55:44;;;;;;;4.60;1.48;;;;;;;;;;5051105;28;20814;-72
2022/07/07 04:58:09;;;;;;;5.93;1.40;;;;;;;;;;5030940;28;20209;-72
2022/07/07 05:00:34;;;;;;;6.53;1.70;;;;;;;;;;5052361;28;20541;-72
2022/07/07 05:03:00;;;;;;;5.50;1.10;;;;;;;;;;5052614;28;20217;-72
2022/07/07 05:05:25;;;;;;;7.30;1.52;;;;;;;;;;5040587;28;20174;-73
2022/07/07 05:07:50;;;;;;;10.10;2.80;;;;;;;;;;5043299;28;20174;-72
2022/07/07 05:10:15;;;;;;;6.32;1.70;;;;;;;;;;5052392;28;20266;-73
2022/07/07 05:12:41;;;;;;;8.00;1.60;;;;;;;;;;5050042;28;20283;-73
2022/07/07 05:15:06;;;;;;;9.50;1.40;;;;;;;;;;5048010;28;20212;-73
2022/07/07 05:17:31;;;;;;;9.77;1.98;;;;;;;;;;5038565;28;20209;-73
2022/07/07 05:19:56;;;;;;;5.73;1.53;;;;;;;;;;5047336;28;20607;-72
2022/07/07 05:22:21;;;;;;;10.23;1.50;;;;;;;;;;5045138;28;20513;-72
2022/07/07 05:24:47;;;;;;;7.22;1.52;;;;;;;;;;5051178;28;20570;-73
2022/07/07 05:27:12;;;;;;;9.68;1.85;;;;;;;;;;5039536;28;20236;-73
2022/07/07 05:29:37;;;;;;;8.88;1.88;;;;;;;;;;5030466;28;20277;-73
2022/07/07 05:32:03;;;;;;;6.15;1.60;;;;;;;;;;5028826;28;20221;-73
2022/07/07 05:34:28;;;;;;;12.05;2.55;;;;;;;;;;5044368;28;20181;-73
2022/07/07 05:36:53;;;;;;;7.97;1.85;;;;;;;;;;5033392;28;20173;-72
2022/07/07 05:39:19;;;;;;;10.30;2.00;;;;;;;;;;5050833;28;20209;-73
2022/07/07 05:41:44;;;;;;;9.15;2.03;;;;;;;;;;5049496;28;20200;-73
2022/07/07 05:44:09;;;;;;;11.00;2.20;;;;;;;;;;5049804;28;20185;-73
2022/07/07 05:46:35;;;;;;;6.85;1.67;;;;;;;;;;5052086;28;20418;-73
2022/07/07 05:49:00;;;;;;;5.82;1.75;;;;;;;;;;5041661;28;20195;-73
2022/07/07 05:51:25;;;;;;;8.25;2.75;;;;;;;;;;5042923;28;20244;-73
2022/07/07 05:53:50;;;;;;;10.05;1.85;;;;;;;;;;5047716;28;20177;-72
2022/07/07 05:56:15;;;;;;;6.75;2.38;;;;;;;;;;5050956;28;20201;-72
2022/07/07 05:58:41;;;;;;;7.22;1.80;;;;;;;;;;5046998;28;20201;-72
2022/07/07 06:01:06;;;;;;;7.20;1.67;;;;;;;;;;5049147;28;20280;-72
2022/07/07 06:03:31;;;;;;;5.90;1.60;;;;;;;;;;5032030;28;20182;-72
2022/07/07 06:05:56;;;;;;;8.50;1.42;;;;;;;;;;5042193;28;20429;-72
2022/07/07 06:08:21;;;;;;;5.72;1.33;;;;;;;;;;5050204;28;20188;-72
2022/07/07 06:10:47;;;;;;;4.63;1.30;;;;;;;;;;5050526;28;20184;-72
2022/07/07 06:13:12;;;;;;;3.28;1.10;;;;;;;;;;5047464;28;20182;-71
2022/07/07 06:15:37;;;;;;;6.03;1.10;;;;;;;;;;5048840;28;20213;-72
2022/07/07 06:18:03;;;;;;;4.75;1.27;;;;;;;;;;5046610;28;20733;-72
2022/07/07 06:20:28;;;;;;;5.85;1.60;;;;;;;;;;5050591;28;20208;-72
2022/07/07 06:22:53;;;;;;;5.78;1.20;;;;;;;;;;5051346;28;20189;-72
2022/07/07 06:25:20;;;;;;;3.70;1.05;;;;;;;;;;5040781;28;20182;-73
2022/07/07 06:27:45;;;;;;;4.22;1.48;;;;;;;;;;5047337;28;20656;-72
2022/07/07 06:30:11;;;;;;;6.90;1.40;;;;;;;;;;5049162;28;20182;-72
2022/07/07 06:32:36;;;;;;;5.38;1.30;;;;;;;;;;5049388;28;20215;-73
2022/07/07 06:35:01;;;;;;;5.30;1.37;;;;;;;;;;5051296;28;20664;-73
2022/07/07 06:37:27;;;;;;;7.53;1.37;;;;;;;;;;5051203;28;20498;-72
2022/07/07 06:39:52;;;;;;;4.55;1.25;;;;;;;;;;5050883;28;20854;-73
2022/07/07 06:42:17;;;;;;;2.97;0.98;;;;;;;;;;5049514;28;20189;-73
2022/07/07 06:44:42;;;;;;;9.30;1.77;;;;;;;;;;5049142;28;20538;-72
2022/07/07 06:47:07;;;;;;;5.20;1.20;;;;;;;;;;5049142;28;20449;-73
2022/07/07 06:49:33;;;;;;;7.50;1.83;;;;;;;;;;5050657;28;20465;-73
2022/07/07 06:51:58;;;;;;;3.05;1.48;;;;;;;;;;5051345;28;20194;-73
2022/07/07 06:54:23;;;;;;;5.97;1.90;;;;;;;;;;5037366;28;20606;-73
2022/07/07 06:56:48;;;;;;;4.28;1.38;;;;;;;;;;5048187;28;20425;-73
2022/07/07 06:59:14;;;;;;;4.53;1.15;;;;;;;;;;5046685;28;20707;-73
2022/07/07 07:01:40;;;;;;;7.20;1.70;;;;;;;;;;5044482;28;20197;-73
2022/07/07 07:04:07;;;;;;;5.18;1.20;;;;;;;;;;5047632;28;20260;-73
2022/07/07 07:06:32;;;;;;;6.35;1.50;;;;;;;;;;5031109;28;20605;-73
2022/07/07 07:08:58;;;;;;;4.38;1.80;;;;;;;;;;5043972;28;20212;-73
2022/07/07 07:11:24;;;;;;;3.63;1.30;;;;;;;;;;5048294;28;20572;-73
2022/07/07 07:13:49;;;;;;;5.70;1.67;;;;;;;;;;5046049;28;20209;-73
2022/07/07 07:16:15;;;;;;;5.13;1.15;;;;;;;;;;5050821;28;20180;-74
2022/07/07 07:18:40;;;;;;;4.43;1.25;;;;;;;;;;5032311;28;20205;-74
2022/07/07 07:21:05;;;;;;;9.38;2.00;;;;;;;;;;5048828;28;20200;-74
2022/07/07 07:23:30;;;;;;;4.10;1.08;;;;;;;;;;5048007;28;20340;-74
2022/07/07 07:25:56;;;;;;;6.83;2.03;;;;;;;;;;5052011;28;20213;-74
2022/07/07 07:28:21;;;;;;;6.50;1.42;;;;;;;;;;5039410;28;20476;-74
2022/07/07 07:30:46;;;;;;;6.57;1.08;;;;;;;;;;5057932;28;20555;-74
2022/07/07 07:33:12;;;;;;;3.07;1.17;;;;;;;;;;5055672;28;20571;-74
2022/07/07 07:35:37;;;;;;;3.78;0.98;;;;;;;;;;5059063;28;20426;-75
2022/07/07 07:38:02;;;;;;;4.80;0.82;;;;;;;;;;5049532;28;20732;-74
2022/07/07 07:40:27;;;;;;;4.05;1.25;;;;;;;;;;5055095;28;20178;-74
2022/07/07 07:42:52;;;;;;;5.18;1.20;;;;;;;;;;5054761;28;20615;-74
2022/07/07 07:45:19;;;;;;;6.45;1.23;;;;;;;;;;5055048;28;20718;-74
2022/07/07 07:47:45;;;;;;;3.58;0.82;;;;;;;;;;5054414;28;20651;-74
2022/07/07 07:50:13;;;;;;;7.32;2.35;;;;;;;;;;5055370;28;20185;-72
2022/07/07 07:52:40;;;;;;;5.65;1.55;;;;;;;;;;5054404;28;20304;-72
2022/07/07 07:55:06;;;;;;;4.60;0.98;;;;;;;;;;5049546;28;20552;-72
2022/07/07 07:57:31;;;;;;;5.03;1.55;;;;;;;;;;5053968;28;20273;-73
2022/07/07 07:59:56;;;;;;;5.28;1.05;;;;;;;;;;5047203;28;20567;-74
2022/07/07 08:02:22;;;;;;;5.43;1.30;;;;;;;;;;5049720;28;20798;-73
2022/07/07 08:04:47;;;;;;;4.88;1.38;;;;;;;;;;5047804;28;20576;-73
2022/07/07 08:07:12;;;;;;;4.07;0.90;;;;;;;;;;5052483;28;20866;-72
2022/07/07 08:09:37;;;;;;;4.93;1.27;;;;;;;;;;5051562;28;20790;-72
2022/07/07 08:12:03;;;;;;;5.05;1.73;;;;;;;;;;5052183;28;20201;-73
2022/07/07 08:14:28;;;;;;;4.00;1.15;;;;;;;;;;5053955;28;20181;-72
2022/07/07 08:16:53;;;;;;;6.88;1.35;;;;;;;;;;5048724;28;20597;-72
2022/07/07 08:19:19;;;;;;;4.73;1.20;;;;;;;;;;5052603;28;20236;-72
2022/07/07 08:21:48;;;;;;;7.53;1.35;;;;;;;;;;5055009;28;20484;-72
2022/07/07 08:24:13;;;;;;;4.25;1.02;;;;;;;;;;5036334;28;20192;-72
2022/07/07 08:26:39;;;;;;;2.78;0.88;;;;;;;;;;5045416;28;20697;-72
2022/07/07 08:29:04;;;;;;;7.28;1.63;;;;;;;;;;5052421;28;20579;-72
2022/07/07 08:31:30;;;;;;;5.67;1.30;;;;;;;;;;5037966;28;20354;-72
2022/07/07 08:33:55;;;;;;;8.20;0.95;;;;;;;;;;5053866;28;20410;-72
2022/07/07 08:36:20;;;;;;;4.25;0.82;;;;;;;;;;5052242;28;20178;-73
2022/07/07 08:38:45;;;;;;;2.45;0.85;;;;;;;;;;5052876;28;20213;-73
2022/07/07 08:41:11;;;;;;;2.63;1.20;;;;;;;;;;5053795;28;20204;-73
2022/07/07 08:43:36;;;;;;;3.75;0.65;;;;;;;;;;5053816;28;20534;-73
2022/07/07 08:46:02;;;;;;;3.38;0.60;;;;;;;;;;5052860;28;20650;-73
2022/07/07 08:48:27;;;;;;;4.63;0.80;;;;;;;;;;5052907;28;20185;-73
2022/07/07 08:50:53;;;;;;;2.22;0.50;;;;;;;;;;5053269;28;21207;-73
2022/07/07 08:53:18;;;;;;;0.75;0.20;;;;;;;;;;5053616;28;20190;-73
2022/07/07 08:55:45;;;;;;;0.95;0.28;;;;;;;;;;5053681;28;20181;-73
2022/07/07 08:58:10;;;;;;;1.65;0.50;;;;;;;;;;5052607;28;20693;-73
2022/07/07 09:00:36;;;;;;;1.52;0.40;;;;;;;;;;5053126;28;20185;-73
2022/07/07 09:03:05;;;;;;;3.78;0.70;;;;;;;;;;5051453;28;20537;-73
2022/07/07 09:05:37;;;;;;;2.53;0.70;;;;;;;;;;5053140;28;20573;-73
2022/07/07 09:08:15;;;;;;;5.10;1.60;;;;;;;;;;5032214;28;20669;-73
2022/07/07 09:10:42;;;;;;;2.22;0.93;;;;;;;;;;5053384;28;20181;-73
2022/07/07 09:13:23;;;;;;;3.58;1.00;;;;;;;;;;5049113;28;20208;-73
2022/07/07 09:15:48;;;;;;;6.30;1.25;;;;;;;;;;5052714;28;20611;-72
2022/07/07 09:18:27;;;;;;;5.85;1.20;;;;;;;;;;5050281;28;20237;-73
2022/07/07 09:20:52;;;;;;;3.33;1.17;;;;;;;;;;5053678;28;20560;-73
2022/07/07 09:23:17;;;;;;;3.40;0.73;;;;;;;;;;5045418;28;20181;-73
2022/07/07 09:25:42;;;;;;;2.67;0.70;;;;;;;;;;5050933;28;20200;-73
2022/07/07 09:28:07;;;;;;;1.95;0.80;;;;;;;;;;5050676;28;20766;-73
2022/07/07 09:30:34;;;;;;;3.72;1.20;;;;;;;;;;5051273;28;20184;-73
2022/07/07 09:33:06;;;;;;;3.40;0.93;;;;;;;;;;5050255;28;20221;-73
2022/07/07 09:38:25;;;;;;;5.72;1.10;;;;;;;;;;5046919;28;20360;-72
2022/07/07 09:40:59;;;;;;;3.28;0.90;;;;;;;;;;5047413;28;20222;-72
2022/07/07 09:43:24;;;;;;;7.90;1.30;;;;;;;;;;5036688;28;20174;-71
2022/07/07 09:46:05;;;;;;;3.40;0.93;;;;;;;;;;5049340;28;20253;-72
2022/07/07 09:48:30;;;;;;;3.05;1.02;;;;;;;;;;5041541;28;20174;-72
2022/07/07 09:51:15;;;;;;;6.03;1.10;;;;;;;;;;5050949;28;20212;-72
2022/07/07 09:53:53;;;;;;;4.43;1.20;;;;;;;;;;5050142;28;20174;-72
2022/07/07 09:56:26;;;;;;;3.00;1.20;;;;;;;;;;5050471;28;20839;-72
2022/07/07 09:58:52;;;;;;;2.63;1.15;;;;;;;;;;5047531;28;20225;-72
2022/07/07 10:01:17;;;;;;;5.40;1.48;;;;;;;;;;5050638;28;20225;-72
2022/07/07 10:03:43;;;;;;;5.68;1.30;;;;;;;;;;5044358;28;20182;-74
2022/07/07 10:06:11;;;;;;;4.05;1.20;;;;;;;;;;5049634;28;20256;-72
2022/07/07 10:08:41;;;;;;;7.32;1.58;;;;;;;;;;5041238;28;20225;-72
2022/07/07 10:11:06;;;;;;;6.38;1.50;;;;;;;;;;5050315;28;20205;-73
2022/07/07 10:13:33;;;;;;;5.57;1.70;;;;;;;;;;5050591;28;20292;-72
2022/07/07 10:15:58;;;;;;;4.72;1.70;;;;;;;;;;5049396;28;20683;-71
2022/07/07 10:18:23;;;;;;;3.47;1.17;;;;;;;;;;5043876;28;20253;-72
2022/07/07 10:20:48;;;;;;;3.92;1.15;;;;;;;;;;5050513;28;20196;-73
2022/07/07 10:23:14;;;;;;;4.30;1.33;;;;;;;;;;5043209;28;20372;-72
2022/07/07 10:25:39;;;;;;;2.97;1.00;;;;;;;;;;5048702;28;20181;-73
2022/07/07 10:28:04;;;;;;;6.03;1.92;;;;;;;;;;5043644;28;20242;-72
2022/07/07 10:30:30;;;;;;;7.13;1.80;;;;;;;;;;5051706;28;20315;-72
2022/07/07 10:32:57;;;;;;;9.25;1.35;;;;;;;;;;5051860;28;20457;-72
2022/07/07 10:35:23;;;;;;;3.60;1.48;;;;;;;;;;5033504;28;20616;-72
2022/07/07 10:37:49;;;;;;;7.97;1.90;;;;;;;;;;5033321;28;20577;-72
2022/07/07 10:40:25;;;;;;;4.90;1.40;;;;;;;;;;5046874;28;20178;-72
2022/07/07 10:42:59;;;;;;;5.72;1.30;;;;;;;;;;5049740;28;20221;-72
2022/07/07 10:45:25;;;;;;;3.22;1.05;;;;;;;;;;5053239;28;20177;-72
2022/07/07 10:47:50;;;;;;;3.10;0.75;;;;;;;;;;5052659;28;20646;-72
2022/07/07 10:50:35;;;;;;;3.85;1.15;;;;;;;;;;5050940;28;20219;-72
2022/07/07 10:53:01;;;;;;;5.50;0.85;;;;;;;;;;5048944;28;20566;-73
2022/07/07 10:55:59;;;;;;;6.03;1.38;;;;;;;;;;5032938;28;20174;-73
2022/07/07 10:58:42;;;;;;;7.63;1.13;;;;;;;;;;4991157;28;20249;-73
2022/07/07 11:01:08;;;;;;;3.30;1.10;;;;;;;;;;5045863;28;20271;-73
2022/07/07 11:03:36;;;;;;;4.18;1.58;;;;;;;;;;5034164;28;20661;-73
2022/07/07 11:06:03;;;;;;;8.38;1.30;;;;;;;;;;5049289;28;20544;-72
2022/07/07 11:08:34;;;;;;;6.13;1.20;;;;;;;;;;5034801;28;20239;-73
2022/07/07 11:10:59;;;;;;;6.07;2.13;;;;;;;;;;5036561;28;20208;-72
2022/07/07 11:13:35;;;;;;;6.47;2.03;;;;;;;;;;5042425;28;20181;-72
2022/07/07 11:16:13;;;;;;;4.50;1.13;;;;;;;;;;5050935;28;20288;-72
2022/07/07 11:18:38;;;;;;;4.20;1.27;;;;;;;;;;5046034;28;20197;-72
2022/07/07 11:21:04;;;;;;;3.75;0.95;;;;;;;;;;5050400;28;20208;-72
2022/07/07 11:23:49;;;;;;;3.35;1.10;;;;;;;;;;5030648;28;20178;-72
2022/07/07 11:26:16;;;;;;;2.25;1.05;;;;;;;;;;5050870;28;20665;-73
2022/07/07 11:28:41;;;;;;;5.45;1.42;;;;;;;;;;5032657;28;20179;-72
2022/07/07 11:31:08;;;;;;;4.70;1.50;;;;;;;;;;5045701;28;20295;-72
2022/07/07 11:33:33;;;;;;;3.88;1.30;;;;;;;;;;5049355;28;20205;-72
2022/07/07 11:36:07;;;;;;;4.88;1.63;;;;;;;;;;5045932;28;20228;-72
2022/07/07 11:38:32;;;;;;;3.95;1.02;;;;;;;;;;5043404;28;20310;-73
2022/07/07 11:40:57;;;;;;;2.37;0.90;;;;;;;;;;5049939;28;20667;-73
2022/07/07 11:43:23;;;;;;;2.07;1.03;;;;;;;;;;5049016;28;20419;-73
2022/07/07 11:45:49;;;;;;;4.53;1.20;;;;;;;;;;5047137;28;20426;-73
2022/07/07 11:48:14;;;;;;;3.67;0.90;;;;;;;;;;5042531;28;20193;-72
2022/07/07 11:50:40;;;;;;;4.78;1.20;;;;;;;;;;5047251;28;20449;-73
2022/07/07 11:53:05;;;;;;;5.07;1.20;;;;;;;;;;5045039;28;20184;-73
2022/07/07 11:55:31;;;;;;;6.63;1.70;;;;;;;;;;5047930;28;20181;-73
2022/07/07 11:57:58;;;;;;;3.63;1.40;;;;;;;;;;5036155;28;20213;-73
2022/07/07 12:00:27;;;;;;;5.65;1.80;;;;;;;;;;5046288;28;20411;-73
2022/07/07 12:02:53;;;;;;;4.85;1.70;;;;;;;;;;5050640;28;20323;-73
2022/07/07 12:05:19;;;;;;;8.40;3.03;;;;;;;;;;5048557;28;20264;-73
2022/07/07 12:07:56;;;;;;;7.57;1.75;;;;;;;;;;5049310;28;20559;-73
2022/07/07 12:10:23;;;;;;;8.65;2.90;;;;;;;;;;5050563;28;20260;-73
2022/07/07 12:12:56;;;;;;;9.23;2.53;;;;;;;;;;5051943;28;20667;-73
2022/07/07 12:15:21;;;;;;;7.72;2.30;;;;;;;;;;5040095;28;20208;-74
2022/07/07 12:17:46;;;;;;;10.63;2.20;;;;;;;;;;5051721;28;20676;-73
2022/07/07 12:20:15;;;;;;;12.23;2.97;;;;;;;;;;5048853;28;20418;-74
2022/07/07 12:22:42;;;;;;;9.93;2.70;;;;;;;;;;5050676;28;20233;-73
2022/07/07 12:25:09;;;;;;;9.25;2.70;;;;;;;;;;5051924;28;20674;-74
2022/07/07 12:27:34;;;;;;;11.43;2.22;;;;;;;;;;5053386;28;20182;-73
2022/07/07 12:30:00;;;;;;;8.35;2.60;;;;;;;;;;5052712;28;20165;-74
2022/07/07 12:32:26;;;;;;;10.85;1.95;;;;;;;;;;5036313;28;20213;-73
2022/07/07 12:34:51;;;;;;;9.10;2.00;;;;;;;;;;5035709;28;20169;-73
2022/07/07 12:37:16;;;;;;;6.00;2.07;;;;;;;;;;5052145;28;20403;-74
2022/07/07 12:39:42;;;;;;;3.53;1.00;;;;;;;;;;5053191;28;20803;-73
2022/07/07 12:42:07;;;;;;;2.97;0.95;;;;;;;;;;5035722;28;20487;-73
2022/07/07 12:44:32;;;;;;;4.22;0.82;;;;;;;;;;5053215;28;20265;-73
2022/07/07 12:46:58;;;;;;;3.75;0.90;;;;;;;;;;5053495;28;20220;-73
2022/07/07 12:49:24;;;;;;;2.17;0.80;;;;;;;;;;5052919;28;20231;-73
2022/07/07 12:51:54;;;;;;;6.10;1.40;;;;;;;;;;5053469;28;20209;-73
2022/07/07 12:54:22;;;;;;;7.07;1.50;;;;;;;;;;5052982;28;20181;-73
2022/07/07 12:56:56;;;;;;;6.20;1.92;;;;;;;;;;5053425;28;20177;-74
2022/07/07 12:59:21;;;;;;;11.98;2.10;;;;;;;;;;5052451;28;20212;-73
2022/07/07 13:01:55;;;;;;;13.20;2.25;;;;;;;;;;5034712;28;20202;-73
2022/07/07 13:04:21;;;;;;;7.25;2.25;;;;;;;;;;5048146;28;20173;-73
2022/07/07 13:06:48;;;;;;;7.05;1.88;;;;;;;;;;5050949;28;20193;-73
2022/07/07 13:09:13;;;;;;;7.70;1.63;;;;;;;;;;5047524;28;20189;-73
2022/07/07 13:11:38;;;;;;;6.68;1.90;;;;;;;;;;5051246;28;20205;-73
2022/07/07 13:14:04;;;;;;;12.13;2.33;;;;;;;;;;5049664;28;20801;-73
2022/07/07 13:16:29;;;;;;;5.67;1.37;;;;;;;;;;5051852;28;20277;-73
2022/07/07 13:18:54;;;;;;;6.37;1.43;;;;;;;;;;5043785;28;20838;-73
2022/07/07 13:21:19;;;;;;;9.07;1.87;;;;;;;;;;5038133;28;20443;-73
2022/07/07 13:23:44;;;;;;;3.08;1.20;;;;;;;;;;5052235;28;20463;-74
2022/07/07 13:26:12;;;;;;;6.93;1.97;;;;;;;;;;5045134;28;20201;-73
2022/07/07 13:28:37;;;;;;;7.22;1.55;;;;;;;;;;5042301;28;20626;-74
2022/07/07 13:31:02;;;;;;;5.75;1.60;;;;;;;;;;5043444;28;20333;-74
2022/07/07 13:33:27;;;;;;;7.55;1.45;;;;;;;;;;5052143;28;20181;-73
2022/07/07 13:35:53;;;;;;;6.83;1.40;;;;;;;;;;5044984;28;20210;-73
2022/07/07 13:38:18;;;;;;;7.05;1.73;;;;;;;;;;5042891;28;20451;-73
2022/07/07 13:40:43;;;;;;;4.32;1.42;;;;;;;;;;5049019;28;20182;-73
2022/07/07 13:43:08;;;;;;;6.35;1.40;;;;;;;;;;5051163;28;20220;-73
2022/07/07 13:45:34;;;;;;;5.70;1.30;;;;;;;;;;5051496;28;20223;-74
2022/07/07 13:47:59;;;;;;;3.55;1.48;;;;;;;;;;5035822;28;20185;-73
2022/07/07 13:50:24;;;;;;;5.68;1.27;;;;;;;;;;5038840;28;20177;-74
2022/07/07 13:52:50;;;;;;;6.38;1.77;;;;;;;;;;5050968;28;20284;-74
2022/07/07 13:55:15;;;;;;;5.18;2.05;;;;;;;;;;5034545;28;20201;-73
2022/07/07 13:57:40;;;;;;;4.13;1.20;;;;;;;;;;5036497;28;20219;-73
2022/07/07 14:00:06;;;;;;;5.13;1.37;;;;;;;;;;5048719;28;20675;-73
2022/07/07 14:02:32;;;;;;;8.55;1.45;;;;;;;;;;5034454;28;20434;-73
2022/07/07 14:04:57;;;;;;;5.63;1.63;;;;;;;;;;5047304;28;20186;-73
2022/07/07 14:07:22;;;;;;;8.05;1.67;;;;;;;;;;5051964;28;20184;-73
2022/07/07 14:09:47;;;;;;;5.78;1.33;;;;;;;;;;5028689;28;20182;-73
2022/07/07 14:12:13;;;;;;;6.00;1.65;;;;;;;;;;5043548;28;20758;-73
2022/07/07 14:14:38;;;;;;;5.10;1.20;;;;;;;;;;5048188;28;20279;-73
2022/07/07 14:17:04;;;;;;;5.30;1.35;;;;;;;;;;5050819;28;20189;-73
2022/07/07 14:19:29;;;;;;;8.13;1.50;;;;;;;;;;5048131;28;20213;-73
2022/07/07 14:21:55;;;;;;;8.48;1.50;;;;;;;;;;5046716;28;20641;-73
2022/07/07 14:24:21;;;;;;;6.85;1.48;;;;;;;;;;5050692;28;20252;-73
2022/07/07 14:26:46;;;;;;;4.78;1.20;;;;;;;;;;5050507;28;20260;-73
2022/07/07 14:29:11;;;;;;;6.70;1.27;;;;;;;;;;5050513;28;20184;-73
2022/07/07 14:31:36;;;;;;;7.32;1.70;;;;;;;;;;5051506;28;20217;-73
2022/07/07 14:34:02;;;;;;;8.80;2.90;;;;;;;;;;5050150;28;20187;-74
2022/07/07 14:36:28;;;;;;;8.55;1.80;;;;;;;;;;5051600;28;20494;-74
2022/07/07 14:38:53;;;;;;;7.63;1.37;;;;;;;;;;5050903;28;20289;-73
2022/07/07 14:41:18;;;;;;;8.80;1.87;;;;;;;;;;5051274;28;20446;-73
2022/07/07 14:43:43;;;;;;;8.50;2.20;;;;;;;;;;5050593;28;20445;-73